Time;durP1;ratioP1;P1;durP2;ratioP2;P2;SDS_P1;SDS_P2;PMS_P1;PMS_P2;Temp;Humidity;BMP_temperature;BMP_pressure;BME280_temperature;BME280_humidity;BME280_pressure;Samples;Min_cycle;Max_cycle;Signal;HPM_P1;HPM_P2
2023/12/01 00:01:10;;;;;;;;;;;;;;;1.01;100.00;94011.75;10605523;27;1470;-68
2023/12/01 00:06:14;;;;;;;;;;;;;;;1.03;100.00;94014.97;10609588;27;1697;-71
2023/12/01 00:11:17;;;;;;;;;;;;;;;1.05;100.00;94004.91;10608679;27;1890;-71
2023/12/01 00:16:20;;;;;;;;;;;;;;;1.12;100.00;94003.88;10605473;27;1573;-71
2023/12/01 00:21:23;;;;;;;;;;;;;;;1.15;100.00;94006.81;10613074;27;1529;-70
2023/12/01 00:26:26;;;;;;;;;;;;;;;1.12;100.00;94020.56;10613366;27;1407;-76
2023/12/01 00:31:28;;;;;;;;;;;;;;;1.11;100.00;94010.22;10609583;27;2382;-70
2023/12/01 00:36:31;;;;;;;;;;;;;;;1.20;100.00;94013.97;10605821;27;1568;-68
2023/12/01 00:41:34;;;;;;;;;;;;;;;1.17;100.00;94010.00;10611860;27;1361;-72
2023/12/01 00:46:36;;;;;;;;;;;;;;;1.23;100.00;93994.94;10608112;27;4664;-69
2023/12/01 00:51:41;;;;;;;;;;;;;;;1.24;100.00;93984.09;10607505;27;1968;-69
2023/12/01 00:56:44;;;;;;;;;;;;;;;1.28;100.00;94000.25;10608568;27;1496;-69
2023/12/01 01:01:48;;;;;;;;;;;;;;;1.27;100.00;93982.75;10608519;27;1775;-74
2023/12/01 01:06:51;;;;;;;;;;;;;;;1.25;100.00;93984.88;10604710;27;1611;-71
2023/12/01 01:11:54;;;;;;;;;;;;;;;1.29;100.00;93989.41;10583741;27;2005;-71
2023/12/01 01:16:56;;;;;;;;;;;;;;;1.36;100.00;93981.22;10609030;27;1643;-73
2023/12/01 01:22:00;;;;;;;;;;;;;;;1.38;100.00;93991.53;10595126;27;2823;-75
2023/12/01 01:27:05;;;;;;;;;;;;;;;1.40;100.00;93982.31;10586464;27;3215;-70
2023/12/01 01:32:08;;;;;;;;;;;;;;;1.44;100.00;93993.16;10587339;27;2821;-70
2023/12/01 01:37:12;;;;;;;;;;;;;;;1.41;100.00;94004.28;10583939;27;2826;-70
2023/12/01 01:42:15;;;;;;;;;;;;;;;1.43;100.00;93995.00;10589630;27;2831;-74
2023/12/01 01:47:18;;;;;;;;;;;;;;;1.42;100.00;93985.47;10588837;27;4768;-71
2023/12/01 01:52:21;;;;;;;;;;;;;;;1.48;100.00;93986.28;10584395;27;2822;-70
2023/12/01 01:57:23;;;;;;;;;;;;;;;1.49;100.00;93974.66;10588025;27;2860;-77
2023/12/01 02:02:27;;;;;;;;;;;;;;;1.55;100.00;93979.69;10584673;27;2883;-70
2023/12/01 02:07:30;;;;;;;;;;;;;;;1.51;100.00;93975.97;10585716;27;2908;-69
2023/12/01 02:12:33;;;;;;;;;;;;;;;1.50;100.00;93971.72;10590036;27;2820;-69
2023/12/01 02:17:37;;;;;;;;;;;;;;;1.55;100.00;93961.16;10590647;27;2808;-70
2023/12/01 02:22:41;;;;;;;;;;;;;;;1.54;100.00;93970.16;10566087;27;2860;-68
2023/12/01 02:27:44;;;;;;;;;;;;;;;1.59;100.00;93985.25;10587552;27;2862;-70
2023/12/01 02:32:47;;;;;;;;;;;;;;;1.51;100.00;93988.41;10588784;27;2880;-70
2023/12/01 02:37:49;;;;;;;;;;;;;;;1.55;100.00;93994.78;10581669;27;2843;-73
2023/12/01 02:42:52;;;;;;;;;;;;;;;1.58;100.00;94005.63;10583307;27;2857;-71
2023/12/01 02:47:54;;;;;;;;;;;;;;;1.50;100.00;94008.81;10589868;27;2812;-69
2023/12/01 02:52:57;;;;;;;;;;;;;;;1.45;100.00;94015.94;10569317;27;2900;-69
2023/12/01 02:57:59;;;;;;;;;;;;;;;1.39;100.00;94017.75;10594272;27;2923;-68
2023/12/01 03:03:02;;;;;;;;;;;;;;;1.35;100.00;94024.63;10587263;27;3029;-69
2023/12/01 03:08:05;;;;;;;;;;;;;;;1.37;100.00;94029.66;10585373;27;2854;-71
2023/12/01 03:13:09;;;;;;;;;;;;;;;1.34;100.00;94015.91;10592787;27;2918;-69
2023/12/01 03:18:13;;;;;;;;;;;;;;;1.27;100.00;94003.94;10589310;27;2934;-67
2023/12/01 03:23:16;;;;;;;;;;;;;;;1.29;100.00;94017.72;10593947;27;2887;-67
2023/12/01 03:28:18;;;;;;;;;;;;;;;1.28;100.00;94000.25;10590461;27;3064;-68
2023/12/01 03:33:21;;;;;;;;;;;;;;;1.29;100.00;94009.78;10568002;27;2881;-67
2023/12/01 03:38:23;;;;;;;;;;;;;;;1.27;100.00;94019.81;10588081;27;2848;-68
2023/12/01 03:43:26;;;;;;;;;;;;;;;1.27;100.00;94020.66;10591925;27;4624;-68
2023/12/01 03:48:29;;;;;;;;;;;;;;;1.23;100.00;94005.53;10589541;27;2831;-68
2023/12/01 03:53:32;;;;;;;;;;;;;;;1.24;100.00;93994.69;10587497;27;2873;-69
2023/12/01 03:58:35;;;;;;;;;;;;;;;1.23;100.00;94002.88;10590948;27;2825;-70
2023/12/01 04:03:38;;;;;;;;;;;;;;;1.32;100.00;94001.31;10590540;27;2994;-66
2023/12/01 04:08:41;;;;;;;;;;;;;;;1.29;100.00;93999.19;10591568;27;2981;-69
2023/12/01 04:13:44;;;;;;;;;;;;;;;1.27;100.00;93996.81;10586241;27;2863;-65
2023/12/01 04:18:47;;;;;;;;;;;;;;;1.18;100.00;94005.50;10583816;27;2901;-69
2023/12/01 04:23:52;;;;;;;;;;;;;;;1.11;100.00;94005.72;10588183;27;2798;-76
2023/12/01 04:28:54;;;;;;;;;;;;;;;1.07;100.00;94018.66;10574963;27;2847;-68
2023/12/01 04:33:57;;;;;;;;;;;;;;;0.97;100.00;94018.63;10586546;27;2867;-66
2023/12/01 04:39:00;;;;;;;;;;;;;;;0.94;100.00;94016.50;10587548;27;2860;-73
2023/12/01 04:44:02;;;;;;;;;;;;;;;1.01;100.00;94010.97;10590139;27;4594;-67
2023/12/01 04:49:08;;;;;;;;;;;;;;;0.85;100.00;94017.25;10590591;27;2845;-70
2023/12/01 04:54:11;;;;;;;;;;;;;;;0.89;100.00;94008.53;10579939;27;2932;-69
2023/12/01 04:59:15;;;;;;;;;;;;;;;0.85;100.00;93996.06;10584484;27;2868;-70
2023/12/01 05:04:19;;;;;;;;;;;;;;;0.72;100.00;94015.84;10586313;27;3175;-68
2023/12/01 05:09:22;;;;;;;;;;;;;;;0.79;100.00;94021.69;10586207;27;3133;-70
2023/12/01 05:14:25;;;;;;;;;;;;;;;0.83;100.00;94020.16;10580420;27;2846;-74
2023/12/01 05:19:29;;;;;;;;;;;;;;;0.89;100.00;94036.81;10587728;27;2860;-68
2023/12/01 05:24:31;;;;;;;;;;;;;;;0.85;100.00;94038.41;10589305;27;2868;-67
2023/12/01 05:29:35;;;;;;;;;;;;;;;0.81;100.00;94046.03;10588895;27;2878;-69
2023/12/01 05:34:40;;;;;;;;;;;;;;;0.64;100.00;94042.78;10559702;27;2865;-67
2023/12/01 05:39:43;;;;;;;;;;;;;;;0.65;100.00;94044.34;10586915;27;2864;-68
2023/12/01 05:44:46;;;;;;;;;;;;;;;0.63;100.00;94044.59;10585581;27;4540;-69
2023/12/01 05:49:49;;;;;;;;;;;;;;;0.52;100.00;94029.72;10589500;27;2826;-70
2023/12/01 05:54:52;;;;;;;;;;;;;;;0.51;100.00;94034.22;10586205;27;2850;-67
2023/12/01 05:59:55;;;;;;;;;;;;;;;0.45;100.00;94029.94;10573376;27;2862;-69
2023/12/01 06:04:59;;;;;;;;;;;;;;;0.49;100.00;94036.28;10583796;27;2827;-69
2023/12/01 06:10:01;;;;;;;;;;;;;;;0.30;100.00;94031.66;10582654;27;2998;-71
2023/12/01 06:15:05;;;;;;;;;;;;;;;0.32;100.00;94035.66;10592661;27;2839;-74
2023/12/01 06:20:16;;;;;;;;;;;;;;;0.27;100.00;94032.97;10582203;27;3070;-69
2023/12/01 06:25:20;;;;;;;;;;;;;;;0.29;100.00;94030.84;10589425;27;2901;-68
2023/12/01 06:30:23;;;;;;;;;;;;;;;0.30;100.00;94036.94;10600028;27;2827;-70
2023/12/01 06:35:25;;;;;;;;;;;;;;;0.25;100.00;94035.88;10591760;27;2888;-70
2023/12/01 06:40:28;;;;;;;;;;;;;;;0.27;100.00;94027.69;10602684;27;3322;-78
2023/12/01 06:45:31;;;;;;;;;;;;;;;0.24;100.00;94028.16;10596505;27;4701;-69
2023/12/01 06:50:34;;;;;;;;;;;;;;;0.29;100.00;94028.22;10603127;27;2788;-69
2023/12/01 06:55:37;;;;;;;;;;;;;;;0.34;100.00;94025.63;10601472;27;3197;-71
2023/12/01 07:00:40;;;;;;;;;;;;;;;0.32;100.00;94056.78;10596280;27;3620;-72
2023/12/01 07:05:45;;;;;;;;;;;;;;;0.37;100.00;94059.47;10597839;27;2907;-69
2023/12/01 07:10:47;;;;;;;;;;;;;;;0.29;100.00;94062.56;10600255;27;2931;-67
2023/12/01 07:15:50;;;;;;;;;;;;;;;0.39;100.00;94070.59;10586165;27;2934;-68
2023/12/01 07:20:56;;;;;;;;;;;;;;;0.40;100.00;94069.53;10590097;27;2955;-68
2023/12/01 07:25:59;;;;;;;;;;;;;;;0.43;100.00;94084.88;10596302;27;2944;-70
2023/12/01 07:31:02;;;;;;;;;;;;;;;0.37;100.00;94085.09;10590421;27;2976;-72
2023/12/01 07:36:04;;;;;;;;;;;;;;;0.37;100.00;94079.81;10582231;27;2826;-69
2023/12/01 07:41:13;;;;;;;;;;;;;;;0.39;100.00;94083.81;10590160;27;2869;-66
2023/12/01 07:46:16;;;;;;;;;;;;;;;0.45;100.00;94077.53;10583656;27;4629;-73
2023/12/01 07:51:18;;;;;;;;;;;;;;;0.60;100.00;94094.56;10573495;27;3186;-69
2023/12/01 07:56:22;;;;;;;;;;;;;;;0.62;100.00;94095.09;10579544;27;2833;-68
2023/12/01 08:01:25;;;;;;;;;;;;;;;0.64;100.00;94091.16;10605221;27;2791;-71
2023/12/01 08:06:28;;;;;;;;;;;;;;;0.81;100.00;94099.72;10584492;27;2896;-66
2023/12/01 08:11:30;;;;;;;;;;;;;;;0.88;100.00;94110.09;10581877;27;2950;-68
2023/12/01 08:16:34;;;;;;;;;;;;;;;0.95;100.00;94105.38;10585026;27;3126;-68
2023/12/01 08:21:37;;;;;;;;;;;;;;;0.93;100.00;94115.44;10586386;27;2895;-68
2023/12/01 08:26:42;;;;;;;;;;;;;;;1.05;100.00;94115.25;10588847;27;2838;-69
2023/12/01 08:31:46;;;;;;;;;;;;;;;1.04;100.00;94121.59;10590865;27;2817;-67
2023/12/01 08:36:49;;;;;;;;;;;;;;;1.15;100.00;94106.59;10586890;27;2839;-68
2023/12/01 08:41:53;;;;;;;;;;;;;;;1.18;100.00;94114.81;10589598;27;2910;-68
2023/12/01 08:46:56;;;;;;;;;;;;;;;1.27;100.00;94118.59;10566952;27;4548;-70
2023/12/01 08:51:58;;;;;;;;;;;;;;;1.24;100.00;94107.69;10587966;27;2843;-67
2023/12/01 08:57:02;;;;;;;;;;;;;;;1.34;100.00;94111.22;10588478;27;2820;-68
2023/12/01 09:02:06;;;;;;;;;;;;;;;1.58;100.00;94135.41;10589053;27;2840;-69
2023/12/01 09:07:14;;;;;;;;;;;;;;;1.80;100.00;94139.75;10585890;27;2794;-66
2023/12/01 09:12:17;;;;;;;;;;;;;;;1.78;100.00;94142.69;10572505;27;2851;-68
2023/12/01 09:17:19;;;;;;;;;;;;;;;1.74;100.00;94135.50;10590819;27;3104;-67
2023/12/01 09:22:23;;;;;;;;;;;;;;;1.80;100.00;94140.56;10587893;27;3191;-67
2023/12/01 09:27:27;;;;;;;;;;;;;;;1.73;100.00;94149.81;10593529;27;2993;-71
2023/12/01 09:32:29;;;;;;;;;;;;;;;1.76;100.00;94138.69;10588626;27;2840;-67
2023/12/01 09:37:33;;;;;;;;;;;;;;;1.87;100.00;94143.75;10589236;27;2903;-68
2023/12/01 09:42:36;;;;;;;;;;;;;;;1.85;100.00;94137.94;10588285;27;2764;-68
2023/12/01 09:47:39;;;;;;;;;;;;;;;1.83;100.00;94113.53;10591161;27;4701;-68
2023/12/01 09:52:42;;;;;;;;;;;;;;;1.93;100.00;94112.78;10587988;27;2958;-70
2023/12/01 09:57:45;;;;;;;;;;;;;;;1.74;100.00;94111.66;10588623;27;2852;-69
2023/12/01 10:02:49;;;;;;;;;;;;;;;1.65;100.00;94097.31;10597045;27;2851;-69
2023/12/01 10:07:52;;;;;;;;;;;;;;;1.79;100.00;94093.13;10590852;27;3109;-68
2023/12/01 10:12:58;;;;;;;;;;;;;;;1.89;100.00;94085.22;10605816;27;2804;-67
2023/12/01 10:18:01;;;;;;;;;;;;;;;1.82;100.00;94089.97;10602497;27;3487;-69
2023/12/01 10:23:04;;;;;;;;;;;;;;;1.75;100.00;94081.47;10604059;27;2841;-68
2023/12/01 10:28:06;;;;;;;;;;;;;;;1.72;100.00;94085.44;10600065;27;2824;-69
2023/12/01 10:33:10;;;;;;;;;;;;;;;1.82;100.00;94082.81;10598068;27;3142;-71
2023/12/01 10:38:13;;;;;;;;;;;;;;;1.75;100.00;94090.19;10597970;27;2843;-72
2023/12/01 10:43:15;;;;;;;;;;;;;;;1.81;100.00;94091.81;10599123;27;4653;-69
2023/12/01 10:48:18;;;;;;;;;;;;;;;1.77;100.00;94092.59;10590570;27;3016;-68
2023/12/01 10:53:21;;;;;;;;;;;;;;;1.65;100.00;94105.25;10592837;27;2874;-72
2023/12/01 10:58:24;;;;;;;;;;;;;;;1.70;100.00;94097.31;10594496;27;3200;-67
2023/12/01 11:03:27;;;;;;;;;;;;;;;1.55;100.00;94075.03;10595564;27;2879;-68
2023/12/01 11:08:30;;;;;;;;;;;;;;;1.57;100.00;94057.03;10591279;27;3096;-68
2023/12/01 11:13:33;;;;;;;;;;;;;;;1.67;100.00;94050.19;10597042;27;2862;-68
2023/12/01 11:18:38;;;;;;;;;;;;;;;1.35;100.00;94070.44;10597591;27;3177;-68
2023/12/01 11:23:40;;;;;;;;;;;;;;;1.24;100.00;94057.41;10591334;27;3241;-67
2023/12/01 11:28:55;;;;;;;;;;;;;;;1.19;100.00;94054.72;10599440;27;2870;-69
2023/12/01 11:33:58;;;;;;;;;;;;;;;1.16;100.00;94050.75;10598628;27;2819;-67
2023/12/01 11:39:02;;;;;;;;;;;;;;;1.28;100.00;94050.56;10592829;27;2878;-70
2023/12/01 11:44:11;;;;;;;;;;;;;;;1.10;100.00;94061.56;10577531;27;4610;-67
2023/12/01 11:49:14;;;;;;;;;;;;;;;0.97;100.00;94053.03;10593346;27;2849;-70
2023/12/01 11:54:19;;;;;;;;;;;;;;;1.06;100.00;94059.41;10588256;27;2956;-67
2023/12/01 11:59:22;;;;;;;;;;;;;;;1.17;100.00;94046.25;10588245;27;2899;-72
2023/12/01 12:04:25;;;;;;;;;;;;;;;0.99;100.00;94050.13;10596720;27;2860;-68
2023/12/01 12:09:31;;;;;;;;;;;;;;;0.96;100.00;94045.34;10590820;27;2945;-68
2023/12/01 12:14:37;;;;;;;;;;;;;;;0.93;100.00;94036.06;10591664;27;2874;-67
2023/12/01 12:19:42;;;;;;;;;;;;;;;0.78;100.00;94046.56;10578445;27;2843;-68
2023/12/01 12:24:50;;;;;;;;;;;;;;;0.72;100.00;94039.66;10595219;27;2967;-68
2023/12/01 12:29:53;;;;;;;;;;;;;;;0.65;100.00;94026.63;10598839;27;2917;-70
2023/12/01 12:34:56;;;;;;;;;;;;;;;0.62;100.00;94028.97;10599238;27;2795;-70
2023/12/01 12:40:00;;;;;;;;;;;;;;;0.47;100.00;94021.75;10570278;27;2930;-68
2023/12/01 12:45:03;;;;;;;;;;;;;;;0.51;100.00;94028.94;10591120;27;2836;-68
2023/12/01 12:50:06;;;;;;;;;;;;;;;0.47;100.00;94037.59;10600884;27;2879;-67
2023/12/01 12:55:09;;;;;;;;;;;;;;;0.48;100.00;94037.34;10594109;27;2909;-72
2023/12/01 13:00:12;;;;;;;;;;;;;;;0.38;100.00;94062.91;10596334;27;3148;-69
2023/12/01 13:05:15;;;;;;;;;;;;;;;0.35;100.00;94050.19;10592351;27;2740;-71
2023/12/01 13:10:18;;;;;;;;;;;;;;;0.06;100.00;94052.31;10589636;27;2882;-70
2023/12/01 13:15:21;;;;;;;;;;;;;;;0.14;100.00;94050.03;10595171;27;4025;-70
2023/12/01 13:20:25;;;;;;;;;;;;;;;0.14;100.00;94059.81;10589864;27;2942;-69
2023/12/01 13:25:28;;;;;;;;;;;;;;;0.13;100.00;94058.22;10589405;27;3148;-71
2023/12/01 13:30:31;;;;;;;;;;;;;;;0.01;100.00;94054.94;10586065;27;2775;-70
2023/12/01 13:35:34;;;;;;;;;;;;;;;0.00;100.00;94064.69;10593147;27;2801;-68
2023/12/01 13:40:37;;;;;;;;;;;;;;;-0.07;100.00;94059.59;10570553;27;2846;-70
2023/12/01 13:45:39;;;;;;;;;;;;;;;-0.07;100.00;94070.16;10592773;27;4650;-74
2023/12/01 13:50:42;;;;;;;;;;;;;;;-0.13;100.00;94076.44;10594856;27;2918;-69
2023/12/01 13:55:46;;;;;;;;;;;;;;;-0.05;100.00;94075.22;10593807;27;3138;-70
2023/12/01 14:00:59;;;;;;;;;;;;;;;-0.13;100.00;94073.00;10593736;27;2934;-71
2023/12/01 14:06:02;;;;;;;;;;;;;;;-0.09;100.00;94074.88;10594430;27;2906;-70
2023/12/01 14:11:05;;;;;;;;;;;;;;;-0.16;100.00;94066.38;10595751;27;2843;-70
2023/12/01 14:16:11;;;;;;;;;;;;;;;-0.05;100.00;94077.84;10594244;27;2843;-70
2023/12/01 14:21:13;;;;;;;;;;;;;;;-0.09;100.00;94077.53;10593655;27;2871;-71
2023/12/01 14:26:16;;;;;;;;;;;;;;;-0.06;100.00;94079.69;10596337;27;2939;-70
2023/12/01 14:31:19;;;;;;;;;;;;;;;0.00;100.00;94080.56;10594157;27;2895;-71
2023/12/01 14:36:22;;;;;;;;;;;;;;;-0.08;100.00;94068.56;10593003;27;2807;-71
2023/12/01 14:41:24;;;;;;;;;;;;;;;-0.19;100.00;94071.34;10574249;27;3077;-72
2023/12/01 14:46:31;;;;;;;;;;;;;;;-0.18;100.00;94073.75;10593810;27;4708;-70
2023/12/01 14:51:34;;;;;;;;;;;;;;;-0.16;100.00;94071.66;10602768;27;2899;-71
2023/12/01 14:56:37;;;;;;;;;;;;;;;-0.19;100.00;94082.72;10596701;27;2859;-70
2023/12/01 15:01:39;;;;;;;;;;;;;;;-0.23;100.00;94086.91;10597113;27;2847;-70
2023/12/01 15:06:42;;;;;;;;;;;;;;;-0.22;100.00;94099.06;10597449;27;2858;-70
2023/12/01 15:11:48;;;;;;;;;;;;;;;-0.31;100.00;94116.38;10599180;27;2827;-69
2023/12/01 15:16:51;;;;;;;;;;;;;;;-0.17;100.00;94125.53;10600783;27;2824;-73
2023/12/01 15:21:54;;;;;;;;;;;;;;;-0.22;100.00;94122.81;10598328;27;2831;-70
2023/12/01 15:26:57;;;;;;;;;;;;;;;-0.14;100.00;94122.38;10596887;27;2798;-69
2023/12/01 15:31:59;;;;;;;;;;;;;;;-0.26;100.00;94121.69;10603643;27;2867;-73
2023/12/01 15:37:01;;;;;;;;;;;;;;;-0.21;100.00;94105.13;10592857;27;3193;-69
2023/12/01 15:42:04;;;;;;;;;;;;;;;-0.13;100.00;94121.31;10598648;27;2874;-70
2023/12/01 15:47:08;;;;;;;;;;;;;;;-0.28;100.00;94123.81;10596515;27;4817;-69
2023/12/01 15:52:10;;;;;;;;;;;;;;;-0.34;100.00;94117.66;10594234;27;2942;-70
2023/12/01 15:57:13;;;;;;;;;;;;;;;-0.22;100.00;94136.03;10580834;27;2912;-71
2023/12/01 16:02:18;;;;;;;;;;;;;;;-0.25;100.00;94136.53;10600243;27;3006;-74
2023/12/01 16:07:21;;;;;;;;;;;;;;;-0.21;100.00;94121.78;10590293;27;2900;-70
2023/12/01 16:12:24;;;;;;;;;;;;;;;-0.17;100.00;94125.53;10591728;27;2894;-71
2023/12/01 16:17:27;;;;;;;;;;;;;;;-0.14;100.00;94124.22;10596789;27;2811;-70
2023/12/01 16:22:31;;;;;;;;;;;;;;;-0.14;100.00;94122.38;10594994;27;2940;-71
2023/12/01 16:27:34;;;;;;;;;;;;;;;-0.19;100.00;94124.16;10593748;27;2901;-68
2023/12/01 16:32:37;;;;;;;;;;;;;;;-0.18;100.00;94120.50;10590890;27;2834;-69
2023/12/01 16:37:40;;;;;;;;;;;;;;;-0.30;100.00;94123.25;10596172;27;2894;-69
2023/12/01 16:42:42;;;;;;;;;;;;;;;-0.26;100.00;94113.78;10590083;27;3078;-70
2023/12/01 16:47:47;;;;;;;;;;;;;;;-0.27;100.00;94125.41;10593657;27;4489;-68
2023/12/01 16:52:50;;;;;;;;;;;;;;;-0.44;100.00;94133.41;10591328;27;2892;-76
2023/12/01 16:57:54;;;;;;;;;;;;;;;-0.45;100.00;94141.53;10594747;27;2967;-69
2023/12/01 17:02:56;;;;;;;;;;;;;;;-0.46;100.00;94140.75;10558196;27;2863;-72
2023/12/01 17:07:59;;;;;;;;;;;;;;;-0.53;100.00;94131.41;10589743;27;2877;-69
2023/12/01 17:13:02;;;;;;;;;;;;;;;-0.52;100.00;94136.44;10594124;27;2811;-69
2023/12/01 17:18:05;;;;;;;;;;;;;;;-0.43;100.00;94107.78;10601803;27;2902;-69
2023/12/01 17:23:08;;;;;;;;;;;;;;;-0.48;100.00;94105.88;10596603;27;2717;-69
2023/12/01 17:28:11;;;;;;;;;;;;;;;-0.48;100.00;94110.38;10579683;27;2787;-68
2023/12/01 17:33:14;;;;;;;;;;;;;;;-0.45;100.00;94115.13;10595847;27;2979;-69
2023/12/01 17:38:17;;;;;;;;;;;;;;;-0.58;100.00;94117.09;10593648;27;2915;-70
2023/12/01 17:43:19;;;;;;;;;;;;;;;-0.39;100.00;94107.03;10570992;27;4684;-71
2023/12/01 17:48:26;;;;;;;;;;;;;;;-0.54;100.00;94104.22;10589936;27;2812;-71
2023/12/01 17:53:29;;;;;;;;;;;;;;;-0.51;100.00;94089.72;10589318;27;2979;-69
2023/12/01 17:58:34;;;;;;;;;;;;;;;-0.56;100.00;94101.03;10588246;27;2879;-70
2023/12/01 18:03:36;;;;;;;;;;;;;;;-0.55;100.00;94106.06;10587611;27;3304;-68
2023/12/01 18:08:39;;;;;;;;;;;;;;;-0.51;100.00;94108.19;10593891;27;3001;-69
2023/12/01 18:13:42;;;;;;;;;;;;;;;-0.51;100.00;94105.56;10587743;27;2888;-68
2023/12/01 18:18:45;;;;;;;;;;;;;;;-0.53;100.00;94105.81;10585921;27;2894;-69
2023/12/01 18:23:47;;;;;;;;;;;;;;;-0.53;100.00;94097.88;10595526;27;2834;-68
2023/12/01 18:28:50;;;;;;;;;;;;;;;-0.59;100.00;94098.88;10595267;27;2879;-69
2023/12/01 18:33:53;;;;;;;;;;;;;;;-0.56;100.00;94091.28;10593586;27;2800;-68
2023/12/01 18:38:56;;;;;;;;;;;;;;;-0.69;100.00;94083.72;10594102;27;3017;-69
2023/12/01 18:43:59;;;;;;;;;;;;;;;-0.71;100.00;94096.34;10593763;27;2814;-69
2023/12/01 18:49:01;;;;;;;;;;;;;;;-0.63;100.00;94103.84;10599727;27;2845;-69
2023/12/01 18:54:04;;;;;;;;;;;;;;;-0.49;100.00;94093.72;10584991;27;2912;-69
2023/12/01 18:59:07;;;;;;;;;;;;;;;-0.39;100.00;94103.59;10598255;27;2858;-69
2023/12/01 19:04:09;;;;;;;;;;;;;;;-0.56;100.00;94106.31;10580552;27;3209;-71
2023/12/01 19:09:12;;;;;;;;;;;;;;;-0.49;100.00;94091.09;10598865;27;2792;-70
2023/12/01 19:14:15;;;;;;;;;;;;;;;-0.42;100.00;94104.09;10578263;27;2906;-70
2023/12/01 19:19:19;;;;;;;;;;;;;;;-0.62;100.00;94125.75;10596388;27;2807;-68
2023/12/01 19:24:22;;;;;;;;;;;;;;;-0.56;100.00;94117.66;10579939;27;2900;-71
2023/12/01 19:29:25;;;;;;;;;;;;;;;-0.49;100.00;94106.13;10600378;27;2826;-71
2023/12/01 19:34:28;;;;;;;;;;;;;;;-0.69;100.00;94104.84;10595869;27;2962;-72
2023/12/01 19:39:30;;;;;;;;;;;;;;;-0.65;100.00;94105.91;10594030;27;2927;-71
2023/12/01 19:44:33;;;;;;;;;;;;;;;-0.52;100.00;94093.41;10580333;27;4657;-69
2023/12/01 19:49:35;;;;;;;;;;;;;;;-0.46;100.00;94097.72;10592574;27;2783;-72
2023/12/01 19:54:38;;;;;;;;;;;;;;;-0.58;100.00;94090.69;10574775;27;2865;-73
2023/12/01 19:59:41;;;;;;;;;;;;;;;-0.50;100.00;94091.34;10591115;27;3135;-73
2023/12/01 20:04:43;;;;;;;;;;;;;;;-0.50;100.00;94092.13;10598216;27;2891;-74
2023/12/01 20:09:46;;;;;;;;;;;;;;;-0.63;100.00;94100.41;10591221;27;2909;-73
2023/12/01 20:14:51;;;;;;;;;;;;;;;-0.65;100.00;94100.66;10596901;27;3321;-72
2023/12/01 20:19:53;;;;;;;;;;;;;;;-0.57;100.00;94094.16;10597306;27;2901;-71
2023/12/01 20:24:57;;;;;;;;;;;;;;;-0.56;100.00;94099.19;10591707;27;2900;-71
2023/12/01 20:29:59;;;;;;;;;;;;;;;-0.60;100.00;94097.28;10591166;27;2863;-70
2023/12/01 20:35:03;;;;;;;;;;;;;;;-0.53;100.00;94091.81;10594573;27;3135;-70
2023/12/01 20:40:05;;;;;;;;;;;;;;;-0.56;100.00;94103.69;10571263;27;2890;-72
2023/12/01 20:45:08;;;;;;;;;;;;;;;-0.57;100.00;94097.59;10590075;27;4617;-72
2023/12/01 20:50:11;;;;;;;;;;;;;;;-0.64;100.00;94096.16;10587801;27;2756;-71
2023/12/01 20:55:16;;;;;;;;;;;;;;;-0.69;100.00;94102.19;10595364;27;2894;-71
2023/12/01 21:00:19;;;;;;;;;;;;;;;-0.61;100.00;94103.59;10586262;27;3075;-73
2023/12/01 21:05:22;;;;;;;;;;;;;;;-0.62;100.00;94094.88;10596847;27;2933;-71
2023/12/01 21:10:25;;;;;;;;;;;;;;;-0.59;100.00;94083.03;10596575;27;3038;-70
2023/12/01 21:15:28;;;;;;;;;;;;;;;-0.68;100.00;94090.59;10594191;27;2882;-71
2023/12/01 21:20:31;;;;;;;;;;;;;;;-0.56;100.00;94072.81;10587314;27;2920;-72
2023/12/01 21:25:33;;;;;;;;;;;;;;;-0.59;100.00;94088.31;10598091;27;2822;-71
2023/12/01 21:30:36;;;;;;;;;;;;;;;-0.65;100.00;94084.81;10596123;27;2812;-72
2023/12/01 21:35:39;;;;;;;;;;;;;;;-0.73;100.00;94079.97;10597940;27;2928;-72
2023/12/01 21:40:44;;;;;;;;;;;;;;;-0.72;100.00;94068.38;10588752;27;2851;-73
2023/12/01 21:45:46;;;;;;;;;;;;;;;-0.65;100.00;94068.97;10589112;27;4356;-73
2023/12/01 21:50:50;;;;;;;;;;;;;;;-0.71;100.00;94085.00;10592772;27;2895;-75
2023/12/01 21:55:53;;;;;;;;;;;;;;;-0.67;100.00;94084.25;10593347;27;2976;-73
2023/12/01 22:00:56;;;;;;;;;;;;;;;-0.69;100.00;94077.66;10595615;27;2837;-74
2023/12/01 22:05:58;;;;;;;;;;;;;;;-0.67;100.00;94081.63;10588763;27;2831;-78
2023/12/01 22:11:01;;;;;;;;;;;;;;;-0.69;100.00;94062.63;10601462;27;2834;-77
2023/12/01 22:16:03;;;;;;;;;;;;;;;-0.66;100.00;94077.94;10597696;27;2811;-77
2023/12/01 22:21:06;;;;;;;;;;;;;;;-0.65;100.00;94087.44;10589095;27;2811;-76
2023/12/01 22:26:09;;;;;;;;;;;;;;;-0.58;100.00;94074.88;10590474;27;3160;-74
2023/12/01 22:31:11;;;;;;;;;;;;;;;-0.74;100.00;94073.09;10592235;27;2883;-72
2023/12/01 22:36:14;;;;;;;;;;;;;;;-0.74;100.00;94090.78;10592808;27;2815;-76
2023/12/01 22:41:17;;;;;;;;;;;;;;;-0.71;100.00;94080.50;10587611;27;2863;-75
2023/12/01 22:46:20;;;;;;;;;;;;;;;-0.80;100.00;94081.19;10585446;27;4673;-77
2023/12/01 22:51:22;;;;;;;;;;;;;;;-0.77;100.00;94092.03;10587857;27;2833;-76
2023/12/01 22:56:25;;;;;;;;;;;;;;;-0.68;100.00;94093.22;10590977;27;2887;-75
2023/12/01 23:01:28;;;;;;;;;;;;;;;-0.70;100.00;94086.59;10589463;27;2803;-74
2023/12/01 23:06:30;;;;;;;;;;;;;;;-0.75;100.00;94084.69;10584622;27;2895;-75
2023/12/01 23:11:33;;;;;;;;;;;;;;;-0.76;100.00;94091.03;10591927;27;3012;-75
2023/12/01 23:16:35;;;;;;;;;;;;;;;-0.86;100.00;94085.59;10593740;27;2845;-75
2023/12/01 23:21:38;;;;;;;;;;;;;;;-0.96;100.00;94082.81;10576618;27;2840;-74
2023/12/01 23:26:42;;;;;;;;;;;;;;;-0.96;100.00;94067.00;10583209;27;2820;-74
2023/12/01 23:31:45;;;;;;;;;;;;;;;-0.84;100.00;94062.41;10602132;27;2826;-74
2023/12/01 23:36:49;;;;;;;;;;;;;;;-0.89;100.00;94057.06;10601339;27;3185;-73
2023/12/01 23:41:52;;;;;;;;;;;;;;;-0.93;100.00;94055.97;10596550;27;2919;-76
2023/12/01 23:46:56;;;;;;;;;;;;;;;-0.92;100.00;94047.00;10597802;27;4416;-73
2023/12/01 23:51:59;;;;;;;;;;;;;;;-1.00;100.00;94047.44;10592504;27;2974;-71
2023/12/01 23:57:01;;;;;;;;;;;;;;;-1.01;100.00;94051.91;10569428;27;2820;-71
